Time;durP1;ratioP1;P1;durP2;ratioP2;P2;SDS_P1;SDS_P2;PMS_P1;PMS_P2;Temp;Humidity;BMP_temperature;BMP_pressure;BME280_temperature;BME280_humidity;BME280_pressure;Samples;Min_cycle;Max_cycle;Signal;HPM_P1;HPM_P2
2020/12/27 00:00:23;;;;;;;14.02;6.07;;;-1.00;99.90;;;;;;5008297;28;20410;-73
2020/12/27 00:02:48;;;;;;;19.08;10.07;;;-0.90;99.90;;;;;;5009485;28;20060;-73
2020/12/27 00:05:15;;;;;;;15.73;6.90;;;-0.90;99.90;;;;;;5008074;28;20519;-73
2020/12/27 00:07:41;;;;;;;17.90;7.18;;;-1.00;99.90;;;;;;5001371;28;20041;-73
2020/12/27 00:10:07;;;;;;;15.88;6.93;;;-1.00;99.90;;;;;;5004601;28;20030;-73
2020/12/27 00:12:33;;;;;;;18.35;7.55;;;-1.00;99.90;;;;;;5011005;28;20038;-73
2020/12/27 00:15:00;;;;;;;16.73;7.30;;;-1.10;99.90;;;;;;5009023;28;20072;-73
2020/12/27 00:17:26;;;;;;;15.05;6.63;;;-1.10;99.90;;;;;;5008787;28;20405;-73
2020/12/27 00:19:51;;;;;;;14.57;6.57;;;-1.10;99.90;;;;;;5004814;28;20037;-73
2020/12/27 00:22:20;;;;;;;15.15;6.25;;;-1.20;99.90;;;;;;5008993;28;20038;-73
2020/12/27 00:24:46;;;;;;;15.00;7.45;;;-1.20;99.90;;;;;;5008593;28;20030;-73
2020/12/27 00:27:13;;;;;;;16.33;8.13;;;-1.20;99.90;;;;;;5014768;28;20033;-73
2020/12/27 00:29:39;;;;;;;15.38;7.40;;;-1.20;99.90;;;;;;5007511;28;20034;-73
2020/12/27 00:32:04;;;;;;;17.50;8.00;;;-1.20;99.90;;;;;;5008805;28;20038;-72
2020/12/27 00:34:30;;;;;;;16.45;7.28;;;-1.30;99.90;;;;;;5007811;28;20660;-73
2020/12/27 00:36:57;;;;;;;11.88;5.57;;;-1.30;99.90;;;;;;5009407;28;20469;-73
2020/12/27 00:39:23;;;;;;;15.68;6.57;;;-1.30;99.90;;;;;;5008549;28;20076;-72
2020/12/27 00:41:49;;;;;;;17.30;9.23;;;-1.30;99.90;;;;;;5009002;28;20465;-73
2020/12/27 00:44:15;;;;;;;14.70;7.50;;;-1.40;99.90;;;;;;5011559;28;20045;-73
2020/12/27 00:46:41;;;;;;;15.63;7.68;;;-1.30;99.90;;;;;;5008747;28;20040;-73
2020/12/27 00:49:07;;;;;;;17.00;8.38;;;-1.40;99.90;;;;;;5005941;28;20049;-73
2020/12/27 00:51:33;;;;;;;19.40;9.40;;;-1.30;99.90;;;;;;5008232;28;20080;-73
2020/12/27 00:53:58;;;;;;;13.32;5.85;;;-1.40;99.90;;;;;;5008547;28;20030;-73
2020/12/27 00:56:24;;;;;;;8.88;4.40;;;-1.40;99.90;;;;;;5007154;28;20072;-73
2020/12/27 00:58:50;;;;;;;8.88;4.03;;;-1.50;99.90;;;;;;5016958;28;20022;-73
2020/12/27 01:01:16;;;;;;;12.23;5.05;;;-1.50;99.90;;;;;;5001539;28;20852;-73
2020/12/27 01:03:42;;;;;;;13.15;5.82;;;-1.50;99.90;;;;;;5015228;28;20477;-73
2020/12/27 01:06:09;;;;;;;9.95;4.88;;;-1.40;99.90;;;;;;5001831;28;20061;-73
2020/12/27 01:08:34;;;;;;;19.77;8.98;;;-1.40;99.90;;;;;;5013313;28;20041;-73
2020/12/27 01:11:01;;;;;;;14.45;6.60;;;-1.30;99.90;;;;;;5008164;28;20026;-73
2020/12/27 01:13:27;;;;;;;11.05;4.88;;;-1.40;99.90;;;;;;5008339;28;20116;-73
2020/12/27 01:15:53;;;;;;;11.30;4.95;;;-1.40;99.90;;;;;;5007298;28;20128;-73
2020/12/27 01:18:19;;;;;;;10.85;4.28;;;-1.40;99.90;;;;;;5010230;28;20124;-73
2020/12/27 01:20:44;;;;;;;12.88;4.97;;;-1.40;99.90;;;;;;5007847;28;20026;-73
2020/12/27 01:23:10;;;;;;;21.13;7.93;;;-1.40;99.90;;;;;;5008492;28;20038;-73
2020/12/27 01:25:36;;;;;;;17.83;8.18;;;-1.40;99.90;;;;;;5007866;28;20053;-73
2020/12/27 01:28:01;;;;;;;19.40;8.00;;;-1.40;99.90;;;;;;5008306;28;20094;-73
2020/12/27 01:30:27;;;;;;;17.30;6.55;;;-1.40;99.90;;;;;;5015164;28;20072;-73
2020/12/27 01:32:53;;;;;;;14.55;7.43;;;-1.50;99.90;;;;;;5009308;28;20092;-73
2020/12/27 01:35:18;;;;;;;13.95;6.10;;;-1.50;99.90;;;;;;5006399;28;20112;-73
2020/12/27 01:37:44;;;;;;;12.25;5.55;;;-1.60;99.90;;;;;;5009620;28;20109;-72
2020/12/27 01:40:09;;;;;;;11.98;6.13;;;-1.60;99.90;;;;;;5008101;28;20072;-73
2020/12/27 01:42:35;;;;;;;15.00;5.75;;;-1.50;99.90;;;;;;5000091;28;20096;-73
2020/12/27 01:45:03;;;;;;;13.82;5.57;;;-1.50;99.90;;;;;;5008159;28;20125;-73
2020/12/27 01:47:33;;;;;;;12.75;4.88;;;-1.50;99.90;;;;;;5007801;28;20157;-72
2020/12/27 01:49:59;;;;;;;12.50;4.82;;;-1.60;99.90;;;;;;5008185;28;20104;-73
2020/12/27 01:52:25;;;;;;;12.77;4.85;;;-1.50;99.90;;;;;;5001224;28;20073;-73
2020/12/27 01:54:51;;;;;;;10.45;4.30;;;-1.50;99.90;;;;;;5008532;28;20080;-73
2020/12/27 01:57:52;;;;;;;15.15;4.43;;;-1.50;99.90;;;;;;5007383;28;20018;-73
2020/12/27 02:00:18;;;;;;;7.57;4.03;;;-1.50;99.90;;;;;;5007056;28;20541;-73
2020/12/27 02:02:43;;;;;;;9.80;5.00;;;-1.40;99.90;;;;;;5010775;28;20064;-73
2020/12/27 02:05:09;;;;;;;12.30;5.55;;;-1.40;99.90;;;;;;5011806;28;20033;-73
2020/12/27 02:07:35;;;;;;;10.25;5.47;;;-1.40;99.90;;;;;;5010988;28;20040;-73
2020/12/27 02:10:02;;;;;;;11.68;5.40;;;-1.40;99.90;;;;;;5014007;28;20037;-73
2020/12/27 02:12:28;;;;;;;9.95;4.90;;;-1.40;99.90;;;;;;5012309;28;20053;-73
2020/12/27 02:14:53;;;;;;;11.75;5.88;;;-1.40;99.90;;;;;;5011382;28;20042;-73
2020/12/27 02:17:19;;;;;;;11.20;5.90;;;-1.40;99.90;;;;;;5010841;28;20036;-73
2020/12/27 02:19:45;;;;;;;12.85;5.40;;;-1.40;99.90;;;;;;5011336;28;20072;-73
2020/12/27 02:22:11;;;;;;;13.57;5.70;;;-1.40;99.90;;;;;;5010252;28;20061;-73
2020/12/27 02:24:36;;;;;;;12.98;6.60;;;-1.50;99.90;;;;;;5011338;28;20050;-73
2020/12/27 02:27:04;;;;;;;13.93;6.28;;;-1.50;99.90;;;;;;5010056;28;20117;-73
2020/12/27 02:29:33;;;;;;;14.02;5.88;;;-1.50;99.90;;;;;;5011019;28;20835;-73
2020/12/27 02:31:59;;;;;;;12.18;5.60;;;-1.50;99.90;;;;;;5010155;28;20048;-73
2020/12/27 02:34:24;;;;;;;11.00;5.13;;;-1.50;99.90;;;;;;5010875;28;20845;-73
2020/12/27 02:36:51;;;;;;;13.88;5.82;;;-1.50;99.90;;;;;;5016429;28;20036;-73
2020/12/27 02:39:19;;;;;;;15.13;5.78;;;-1.50;99.90;;;;;;5010704;28;20030;-72
2020/12/27 02:41:49;;;;;;;11.38;5.07;;;-1.50;99.90;;;;;;5002374;28;20038;-73
2020/12/27 02:44:15;;;;;;;9.02;4.78;;;-1.60;99.90;;;;;;5010414;28;20100;-73
2020/12/27 02:46:40;;;;;;;10.02;4.95;;;-1.60;99.90;;;;;;5007310;28;20042;-73
2020/12/27 02:49:06;;;;;;;8.32;4.25;;;-1.50;99.90;;;;;;5010644;28;20072;-73
2020/12/27 02:51:31;;;;;;;9.70;3.88;;;-1.50;99.90;;;;;;5009517;28;20041;-73
2020/12/27 02:53:58;;;;;;;13.80;5.18;;;-1.80;99.90;;;;;;5010636;28;20033;-73
2020/12/27 02:56:28;;;;;;;9.80;4.45;;;-1.70;99.90;;;;;;5009391;28;20034;-73
2020/12/27 02:58:59;;;;;;;12.02;4.80;;;-1.60;99.90;;;;;;5010747;28;20026;-73
2020/12/27 03:01:25;;;;;;;8.05;3.83;;;-1.60;99.90;;;;;;5009267;28;20045;-73
2020/12/27 03:03:50;;;;;;;11.02;4.82;;;-1.60;99.90;;;;;;5006514;28;20049;-73
2020/12/27 03:06:19;;;;;;;11.00;3.78;;;-1.60;99.90;;;;;;5006630;28;20370;-73
2020/12/27 03:08:46;;;;;;;8.30;3.53;;;-1.70;99.90;;;;;;5008540;28;20621;-72
2020/12/27 03:11:12;;;;;;;10.95;4.47;;;-1.70;99.90;;;;;;5010266;28;20117;-73
2020/12/27 03:13:38;;;;;;;9.82;4.20;;;-1.70;99.90;;;;;;5012457;28;20037;-73
2020/12/27 03:16:05;;;;;;;10.60;4.20;;;-1.60;99.90;;;;;;5005821;28;20045;-73
2020/12/27 03:18:31;;;;;;;12.10;4.57;;;-1.60;99.90;;;;;;5011746;28;20044;-72
2020/12/27 03:20:58;;;;;;;8.27;4.03;;;-1.60;99.90;;;;;;5011188;28;20033;-73
2020/12/27 03:23:24;;;;;;;10.05;4.30;;;-1.50;99.90;;;;;;5005184;28;20034;-73
2020/12/27 03:25:50;;;;;;;10.00;4.45;;;-1.60;99.90;;;;;;5010655;28;20088;-73
2020/12/27 03:28:16;;;;;;;8.50;3.28;;;-1.60;99.90;;;;;;5009717;28;20404;-73
2020/12/27 03:30:42;;;;;;;7.85;3.03;;;-1.60;99.90;;;;;;5002139;28;20022;-73
2020/12/27 03:33:08;;;;;;;8.68;3.13;;;-1.60;99.90;;;;;;5006428;28;20525;-73
2020/12/27 03:35:34;;;;;;;9.45;3.75;;;-1.60;99.90;;;;;;5009749;28;20034;-73
2020/12/27 03:37:59;;;;;;;8.27;3.10;;;-1.60;99.90;;;;;;5009328;28;20387;-73
2020/12/27 03:40:25;;;;;;;10.95;2.88;;;-1.50;99.90;;;;;;5009760;28;20730;-73
2020/12/27 03:42:51;;;;;;;7.75;3.72;;;-1.60;99.90;;;;;;5009573;28;20547;-73
2020/12/27 03:45:17;;;;;;;9.00;3.60;;;-1.60;99.90;;;;;;5007618;28;20030;-73
2020/12/27 03:47:43;;;;;;;8.02;2.75;;;-1.60;99.90;;;;;;4991694;28;20034;-72
2020/12/27 03:50:09;;;;;;;7.43;3.25;;;-1.50;99.90;;;;;;5008760;28;20080;-73
2020/12/27 03:52:34;;;;;;;9.68;3.83;;;-1.50;99.90;;;;;;5009735;28;20170;-73
2020/12/27 03:55:00;;;;;;;9.75;3.70;;;-1.50;99.90;;;;;;5008806;28;20034;-73
2020/12/27 03:57:26;;;;;;;8.00;3.65;;;-1.40;99.90;;;;;;5009173;28;20034;-73
2020/12/27 03:59:51;;;;;;;8.70;3.67;;;-1.50;99.90;;;;;;5006879;28;20092;-73
2020/12/27 04:02:17;;;;;;;10.55;3.50;;;-1.50;99.90;;;;;;5009261;28;20049;-73
2020/12/27 04:04:43;;;;;;;9.80;3.83;;;-1.60;99.90;;;;;;5008368;28;20040;-72
2020/12/27 04:07:08;;;;;;;9.43;3.47;;;-1.60;99.90;;;;;;5009487;28;20042;-73
2020/12/27 04:09:34;;;;;;;9.40;3.70;;;-1.70;99.90;;;;;;5002545;28;20034;-73
2020/12/27 04:12:00;;;;;;;8.70;3.45;;;-1.70;99.90;;;;;;5009273;28;20034;-73
2020/12/27 04:14:26;;;;;;;7.63;3.40;;;-1.60;99.90;;;;;;5007635;28;20548;-73
2020/12/27 04:16:52;;;;;;;10.02;4.30;;;-1.70;99.90;;;;;;5009071;28;20056;-73
2020/12/27 04:19:18;;;;;;;7.97;3.28;;;-1.80;99.90;;;;;;5007974;28;20067;-73
2020/12/27 04:21:47;;;;;;;10.40;3.28;;;-1.90;99.90;;;;;;5009129;28;20034;-72
2020/12/27 04:24:13;;;;;;;10.45;5.07;;;-1.90;99.90;;;;;;5006543;28;20052;-73
2020/12/27 04:26:38;;;;;;;10.07;4.05;;;-1.70;99.90;;;;;;5008407;28;20393;-73
2020/12/27 04:29:04;;;;;;;11.05;4.53;;;-1.70;99.90;;;;;;5008388;28;20055;-73
2020/12/27 04:31:30;;;;;;;9.90;4.13;;;-1.60;99.90;;;;;;5008526;28;20461;-73
2020/12/27 04:33:56;;;;;;;6.88;3.17;;;-1.80;99.90;;;;;;5007760;28;20033;-73
2020/12/27 04:36:23;;;;;;;6.30;3.25;;;-1.80;99.90;;;;;;4993558;28;20117;-72
2020/12/27 04:38:48;;;;;;;8.27;3.33;;;-1.70;99.90;;;;;;5007991;28;20393;-72
2020/12/27 04:41:16;;;;;;;9.30;4.05;;;-1.70;99.90;;;;;;5008490;28;20037;-73
2020/12/27 04:43:43;;;;;;;7.03;4.03;;;-1.60;99.90;;;;;;5007092;28;20022;-72
2020/12/27 04:46:11;;;;;;;10.13;4.38;;;-1.70;99.90;;;;;;5009711;28;20104;-73
2020/12/27 04:48:41;;;;;;;9.43;4.25;;;-1.70;99.90;;;;;;5008736;28;20255;-72
2020/12/27 04:51:09;;;;;;;9.05;3.70;;;-1.80;99.90;;;;;;4998862;28;20034;-72
2020/12/27 04:53:36;;;;;;;9.65;3.92;;;-1.90;99.90;;;;;;4998501;28;20022;-72
2020/12/27 04:56:04;;;;;;;10.23;3.80;;;-1.80;99.90;;;;;;5001043;28;20039;-72
2020/12/27 04:58:30;;;;;;;10.15;3.58;;;-1.80;99.90;;;;;;5007908;28;20684;-73
2020/12/27 05:00:57;;;;;;;9.05;4.13;;;-1.80;99.90;;;;;;5008842;28;20021;-73
2020/12/27 05:03:23;;;;;;;7.28;3.42;;;-1.80;99.90;;;;;;5001748;28;20038;-73
2020/12/27 05:05:49;;;;;;;8.23;3.35;;;-1.80;99.90;;;;;;5012417;28;20026;-73
2020/12/27 05:08:15;;;;;;;8.18;3.53;;;-1.80;99.90;;;;;;5012134;28;20042;-72
2020/12/27 05:10:42;;;;;;;8.18;3.65;;;-1.80;99.90;;;;;;5008604;28;20036;-73
2020/12/27 05:13:10;;;;;;;12.43;5.00;;;-1.80;99.90;;;;;;5007911;28;20038;-73
2020/12/27 05:15:37;;;;;;;11.95;4.20;;;-1.80;99.90;;;;;;5008532;28;20037;-73
2020/12/27 05:18:07;;;;;;;9.98;4.18;;;-1.80;99.90;;;;;;5008021;28;20038;-73
2020/12/27 05:20:34;;;;;;;9.02;3.95;;;-1.90;99.90;;;;;;5008529;28;20064;-73
2020/12/27 05:23:10;;;;;;;8.82;4.30;;;-1.80;99.90;;;;;;5003609;28;20125;-73
2020/12/27 05:25:38;;;;;;;11.07;3.95;;;-1.90;99.90;;;;;;5007736;28;20042;-73
2020/12/27 05:28:08;;;;;;;8.52;3.75;;;-2.10;99.90;;;;;;5007590;28;20756;-73
2020/12/27 05:30:35;;;;;;;9.13;3.95;;;-2.00;99.90;;;;;;5008368;28;20593;-73
2020/12/27 05:33:09;;;;;;;9.98;4.10;;;-2.00;99.90;;;;;;5008450;28;20049;-73
2020/12/27 05:35:34;;;;;;;8.13;3.80;;;-2.00;99.90;;;;;;5003969;28;20049;-72
2020/12/27 05:38:01;;;;;;;11.68;4.63;;;-2.00;99.90;;;;;;5012080;28;20112;-73
2020/12/27 05:40:26;;;;;;;13.13;5.65;;;-2.00;99.90;;;;;;5011103;28;20640;-72
2020/12/27 05:42:52;;;;;;;11.80;5.50;;;-2.00;99.90;;;;;;5018286;28;20140;-73
2020/12/27 05:45:19;;;;;;;14.40;5.00;;;-2.00;99.90;;;;;;5011231;28;20457;-73
2020/12/27 05:47:46;;;;;;;11.93;4.50;;;-2.00;99.90;;;;;;5017006;28;20042;-73
2020/12/27 05:50:17;;;;;;;8.00;3.80;;;-2.00;99.90;;;;;;5011202;28;20478;-73
2020/12/27 05:52:47;;;;;;;9.35;3.40;;;-2.10;99.90;;;;;;5013451;28;20484;-72
2020/12/27 05:55:20;;;;;;;13.07;4.90;;;-2.10;99.90;;;;;;5010111;28;20088;-72
2020/12/27 05:57:50;;;;;;;9.32;4.00;;;-2.10;99.90;;;;;;5007773;28;20040;-73
2020/12/27 06:00:24;;;;;;;8.23;3.67;;;-2.10;99.90;;;;;;5010363;28;20026;-72
2020/12/27 06:02:58;;;;;;;8.88;3.95;;;-2.10;99.90;;;;;;5004850;28;20413;-73
2020/12/27 06:05:54;;;;;;;10.10;4.30;;;-2.10;99.90;;;;;;5010757;28;20112;-73
2020/12/27 06:08:28;;;;;;;7.22;3.45;;;-2.10;99.90;;;;;;5007925;28;20030;-73
2020/12/27 06:11:06;;;;;;;10.77;3.83;;;-2.10;99.90;;;;;;5005805;28;20041;-72
2020/12/27 06:13:56;;;;;;;10.20;4.13;;;-2.20;99.90;;;;;;5002728;28;20069;-72
2020/12/27 06:16:36;;;;;;;8.65;3.85;;;-2.10;99.90;;;;;;5001094;28;20041;-73
2020/12/27 06:19:21;;;;;;;7.68;3.70;;;-2.20;99.90;;;;;;5007619;28;20053;-72
2020/12/27 06:22:03;;;;;;;9.60;3.95;;;-2.30;99.90;;;;;;5000734;28;20085;-73
2020/12/27 06:24:30;;;;;;;11.40;4.30;;;-2.40;99.90;;;;;;5009064;28;20195;-73
2020/12/27 06:27:01;;;;;;;8.50;4.22;;;-2.30;99.90;;;;;;5003684;28;20033;-72
2020/12/27 06:29:45;;;;;;;5.93;2.08;;;-2.40;99.90;;;;;;5009293;28;20116;-73
2020/12/27 06:32:15;;;;;;;5.03;2.20;;;-2.30;99.90;;;;;;5004855;28;20034;-73
2020/12/27 06:34:40;;;;;;;4.25;2.05;;;-2.20;99.90;;;;;;5008894;28;20038;-73
2020/12/27 06:37:07;;;;;;;8.43;3.58;;;-2.10;99.90;;;;;;5002111;28;20515;-72
2020/12/27 06:39:33;;;;;;;9.75;4.30;;;-2.00;99.90;;;;;;5004464;28;20027;-73
2020/12/27 06:42:15;;;;;;;8.23;3.85;;;-2.00;99.90;;;;;;5005289;28;20372;-73
2020/12/27 06:44:44;;;;;;;9.02;4.20;;;-2.00;99.90;;;;;;5005449;28;20037;-72
2020/12/27 06:47:11;;;;;;;11.15;5.03;;;-2.00;99.90;;;;;;5005685;28;20203;-73
2020/12/27 06:49:37;;;;;;;9.23;4.28;;;-2.00;99.90;;;;;;5009094;28;20499;-72
2020/12/27 06:52:32;;;;;;;8.93;4.57;;;-2.00;99.90;;;;;;5006215;28;20497;-73
2020/12/27 06:54:57;;;;;;;8.65;5.05;;;-2.00;99.90;;;;;;5007127;28;20048;-73
2020/12/27 06:57:44;;;;;;;8.98;4.05;;;-2.10;99.90;;;;;;5006925;28;20042;-73
2020/12/27 07:00:29;;;;;;;10.88;4.63;;;-2.20;99.90;;;;;;5011750;28;20030;-73
2020/12/27 07:03:10;;;;;;;10.02;4.70;;;-2.20;99.90;;;;;;5001508;28;20638;-73
2020/12/27 07:05:40;;;;;;;7.37;3.37;;;-2.20;99.90;;;;;;5009630;28;20140;-73
2020/12/27 07:08:10;;;;;;;13.50;5.70;;;-2.10;99.90;;;;;;5009829;28;20332;-73
2020/12/27 07:10:38;;;;;;;10.63;4.95;;;-2.30;99.90;;;;;;5008501;28;20028;-73
2020/12/27 07:13:09;;;;;;;11.52;4.18;;;-2.30;99.90;;;;;;5007598;28;20077;-72
2020/12/27 07:15:35;;;;;;;10.15;4.63;;;-2.40;99.90;;;;;;5002143;28;20045;-72
2020/12/27 07:18:08;;;;;;;14.68;4.93;;;-2.30;99.90;;;;;;5004177;28;20049;-73
2020/12/27 07:20:36;;;;;;;8.93;4.35;;;-2.30;99.90;;;;;;5006068;28;20030;-72
2020/12/27 07:23:10;;;;;;;12.70;4.78;;;-2.30;99.90;;;;;;5000890;28;20404;-73
2020/12/27 07:25:40;;;;;;;8.93;4.32;;;-2.30;99.90;;;;;;5008319;28;20041;-73
2020/12/27 07:28:07;;;;;;;12.75;4.95;;;-2.30;99.90;;;;;;5000759;28;20117;-74
2020/12/27 07:30:34;;;;;;;9.50;4.53;;;-2.30;99.90;;;;;;5006389;28;20493;-73
2020/12/27 07:33:08;;;;;;;10.40;4.90;;;-2.20;99.90;;;;;;5008990;28;20041;-72
2020/12/27 07:35:34;;;;;;;10.13;4.75;;;-2.20;99.90;;;;;;5005867;28;20034;-73
2020/12/27 07:38:01;;;;;;;10.68;5.63;;;-2.20;99.90;;;;;;5009443;28;20033;-73
2020/12/27 07:40:32;;;;;;;12.77;5.43;;;-2.20;99.90;;;;;;5000372;28;20689;-73
2020/12/27 07:42:59;;;;;;;10.65;4.88;;;-2.20;99.90;;;;;;5009474;28;20109;-72
2020/12/27 07:45:25;;;;;;;11.13;5.40;;;-2.20;99.90;;;;;;5006502;28;20814;-73
2020/12/27 07:47:50;;;;;;;13.68;6.10;;;-2.10;99.90;;;;;;5007386;28;20058;-73
2020/12/27 07:50:18;;;;;;;12.00;6.22;;;-2.10;99.90;;;;;;5005174;28;20054;-73
2020/12/27 07:52:54;;;;;;;12.43;5.95;;;-2.00;99.90;;;;;;5003092;28;20395;-73
2020/12/27 07:55:21;;;;;;;10.45;5.45;;;-2.00;99.90;;;;;;5003899;28;20388;-72
2020/12/27 07:57:47;;;;;;;47.30;21.13;;;-2.00;99.90;;;;;;5007678;28;20034;-73
2020/12/27 08:00:13;;;;;;;19.50;9.57;;;-2.00;99.90;;;;;;5006569;28;20558;-72
2020/12/27 08:02:43;;;;;;;32.03;14.98;;;-2.00;99.90;;;;;;5012207;28;20822;-73
2020/12/27 08:05:11;;;;;;;41.05;18.40;;;-2.00;99.90;;;;;;5004848;28;20033;-72
2020/12/27 08:07:37;;;;;;;16.13;7.13;;;-2.00;99.90;;;;;;5009245;28;20049;-73
2020/12/27 08:10:20;;;;;;;15.13;7.75;;;-2.00;99.90;;;;;;5002136;28;20038;-73
2020/12/27 08:12:56;;;;;;;12.85;7.07;;;-1.90;99.90;;;;;;5002935;28;20037;-72
2020/12/27 08:15:23;;;;;;;14.15;6.95;;;-1.80;99.90;;;;;;5007640;28;20064;-73
2020/12/27 08:17:55;;;;;;;12.35;7.28;;;-1.70;99.90;;;;;;5009398;28;20034;-72
2020/12/27 08:20:21;;;;;;;14.52;7.57;;;-1.60;99.90;;;;;;5008226;28;20030;-73
2020/12/27 08:23:01;;;;;;;13.15;7.60;;;-1.50;99.90;;;;;;5008968;28;20037;-73
2020/12/27 08:25:27;;;;;;;16.75;8.25;;;-1.50;99.90;;;;;;5004384;28;20025;-73
2020/12/27 08:27:55;;;;;;;19.13;9.82;;;-1.50;99.90;;;;;;5008985;28;20034;-73
2020/12/27 08:30:22;;;;;;;15.85;8.38;;;-1.40;99.90;;;;;;5006332;28;20857;-73
2020/12/27 08:32:47;;;;;;;12.10;6.00;;;-1.40;99.90;;;;;;5007102;28;20030;-73
2020/12/27 08:35:23;;;;;;;11.35;5.45;;;-1.40;99.90;;;;;;5009014;28;20465;-73
2020/12/27 08:37:58;;;;;;;14.25;6.38;;;-1.40;99.90;;;;;;5011516;28;20933;-73
2020/12/27 08:40:31;;;;;;;19.33;9.57;;;-1.30;99.90;;;;;;5001506;28;20036;-73
2020/12/27 08:43:03;;;;;;;17.10;8.93;;;-1.30;99.90;;;;;;5007441;28;20030;-73
2020/12/27 08:45:34;;;;;;;17.00;8.75;;;-1.20;99.90;;;;;;5005719;28;20735;-73
2020/12/27 08:48:17;;;;;;;14.15;7.30;;;-1.20;99.90;;;;;;5006741;28;20049;-73
2020/12/27 08:50:45;;;;;;;12.75;5.95;;;-1.20;99.90;;;;;;5001756;28;20034;-73
2020/12/27 08:53:13;;;;;;;12.30;5.63;;;-1.10;99.90;;;;;;5008803;28;20038;-73
2020/12/27 08:55:39;;;;;;;12.13;5.40;;;-1.10;99.90;;;;;;5004567;28;20112;-73
2020/12/27 08:58:10;;;;;;;10.93;5.82;;;-1.10;99.90;;;;;;5000568;28;20077;-73
2020/12/27 09:00:36;;;;;;;9.82;5.20;;;-1.00;99.90;;;;;;5006960;28;20022;-73
2020/12/27 09:03:04;;;;;;;8.95;4.22;;;-1.10;99.90;;;;;;5011212;28;20067;-72
2020/12/27 09:05:34;;;;;;;13.57;4.57;;;-1.00;99.90;;;;;;5007856;28;20509;-73
2020/12/27 09:08:01;;;;;;;12.35;5.53;;;-1.10;99.90;;;;;;5005652;28;20461;-73
2020/12/27 09:10:29;;;;;;;10.48;4.32;;;-1.20;99.90;;;;;;5006662;28;20116;-73
2020/12/27 09:13:12;;;;;;;12.75;5.00;;;-1.20;99.90;;;;;;5011029;28;20045;-73
2020/12/27 09:15:44;;;;;;;9.52;4.03;;;-1.00;99.90;;;;;;5011763;28;20036;-73
2020/12/27 09:18:12;;;;;;;11.10;5.00;;;-1.10;99.90;;;;;;5005150;28;20081;-73
2020/12/27 09:20:40;;;;;;;8.52;4.80;;;-1.10;99.90;;;;;;5011441;28;20026;-73
2020/12/27 09:23:11;;;;;;;10.98;5.53;;;-1.00;99.90;;;;;;5004368;28;20092;-73
2020/12/27 09:25:37;;;;;;;10.20;5.40;;;-0.80;99.90;;;;;;5003324;28;20512;-72
2020/12/27 09:28:15;;;;;;;11.07;5.32;;;-0.80;99.90;;;;;;5010556;28;20038;-73
2020/12/27 09:30:41;;;;;;;10.45;5.72;;;-0.90;99.90;;;;;;5017190;28;20053;-73
2020/12/27 09:33:07;;;;;;;14.32;6.10;;;-0.70;99.90;;;;;;5009683;28;20034;-73
2020/12/27 09:35:34;;;;;;;12.68;6.57;;;-0.70;99.90;;;;;;5011290;28;20041;-73
2020/12/27 09:37:59;;;;;;;16.67;6.35;;;-0.50;99.90;;;;;;5010025;28;20103;-73
2020/12/27 09:40:25;;;;;;;11.27;6.05;;;-0.40;99.90;;;;;;5011305;28;20102;-73
2020/12/27 09:43:03;;;;;;;11.25;5.97;;;-0.50;99.90;;;;;;5010866;28;20507;-73
2020/12/27 09:45:30;;;;;;;12.65;5.90;;;-0.30;99.90;;;;;;5010386;28;20140;-73
2020/12/27 09:48:01;;;;;;;17.48;7.35;;;-0.30;99.90;;;;;;5004837;28;20054;-73
2020/12/27 09:50:29;;;;;;;15.88;7.28;;;-0.40;99.90;;;;;;5009148;28;20030;-73
2020/12/27 09:52:55;;;;;;;17.00;7.32;;;-0.30;99.90;;;;;;5009785;28;20696;-73
2020/12/27 09:55:21;;;;;;;21.20;8.32;;;-0.30;99.90;;;;;;5010463;28;20037;-73
2020/12/27 09:57:47;;;;;;;20.25;8.55;;;-0.10;99.90;;;;;;5002816;28;20030;-73
2020/12/27 10:00:13;;;;;;;15.77;7.07;;;-0.20;99.90;;;;;;5011575;28;20033;-77
2020/12/27 10:02:40;;;;;;;14.68;6.53;;;-0.10;99.90;;;;;;5011379;28;20172;-73
2020/12/27 10:05:05;;;;;;;13.63;6.95;;;0.00;99.90;;;;;;5006641;28;20033;-73
2020/12/27 10:07:31;;;;;;;18.10;8.15;;;0.10;99.90;;;;;;5008502;28;20877;-73
2020/12/27 10:09:57;;;;;;;11.50;6.15;;;0.20;99.90;;;;;;5009981;28;20053;-73
2020/12/27 10:12:22;;;;;;;12.38;6.13;;;0.40;99.90;;;;;;5002793;28;20038;-73
2020/12/27 10:14:48;;;;;;;12.43;6.60;;;0.50;99.90;;;;;;5009185;28;20473;-73
2020/12/27 10:17:14;;;;;;;11.85;5.70;;;0.50;99.90;;;;;;5005926;28;20041;-73
2020/12/27 10:19:40;;;;;;;12.10;5.93;;;0.60;99.90;;;;;;5004478;28;20026;-73
2020/12/27 10:22:06;;;;;;;9.70;4.40;;;0.70;99.90;;;;;;5011466;28;20030;-73
2020/12/27 10:24:33;;;;;;;11.55;5.05;;;0.50;99.90;;;;;;5004692;28;20037;-73
2020/12/27 10:27:00;;;;;;;14.13;4.10;;;0.50;99.90;;;;;;5011470;28;20049;-73
2020/12/27 10:29:26;;;;;;;9.98;4.32;;;0.50;99.90;;;;;;5009285;28;20633;-73
2020/12/27 10:31:53;;;;;;;11.75;4.13;;;0.60;99.90;;;;;;5009492;28;20088;-73
2020/12/27 10:34:19;;;;;;;9.75;4.30;;;0.70;99.90;;;;;;5007759;28;20372;-73
2020/12/27 10:36:49;;;;;;;10.18;3.78;;;0.50;99.90;;;;;;5009451;28;20030;-73
2020/12/27 10:39:15;;;;;;;9.52;3.90;;;0.50;99.90;;;;;;5010599;28;20073;-73
2020/12/27 10:41:42;;;;;;;8.95;4.10;;;0.50;99.90;;;;;;5009952;28;20065;-73
2020/12/27 10:44:08;;;;;;;8.90;3.78;;;0.60;99.90;;;;;;5010614;28;20480;-73
2020/12/27 10:46:34;;;;;;;8.80;4.57;;;0.70;99.90;;;;;;5007194;28;20030;-73
2020/12/27 10:49:00;;;;;;;11.32;4.78;;;0.70;99.90;;;;;;5009978;28;20057;-73
2020/12/27 10:51:25;;;;;;;9.95;4.25;;;0.70;99.90;;;;;;5007200;28;20081;-72
2020/12/27 10:53:51;;;;;;;13.43;5.97;;;0.70;99.90;;;;;;5010530;28;20033;-73
2020/12/27 10:56:16;;;;;;;22.83;14.52;;;0.70;99.90;;;;;;5008464;28;20496;-73
2020/12/27 10:58:42;;;;;;;13.02;5.47;;;0.70;99.90;;;;;;4995627;28;20041;-73
2020/12/27 11:01:08;;;;;;;14.65;7.93;;;0.70;99.90;;;;;;5010175;28;20092;-73
2020/12/27 11:03:33;;;;;;;15.02;7.97;;;0.90;99.90;;;;;;5006716;28;20029;-73
2020/12/27 11:05:59;;;;;;;13.73;5.50;;;1.00;99.90;;;;;;5009889;28;20045;-73
2020/12/27 11:08:25;;;;;;;11.20;4.90;;;1.20;99.90;;;;;;5009360;28;20740;-73
2020/12/27 11:10:50;;;;;;;10.00;4.28;;;1.10;99.90;;;;;;5008668;28;20858;-73
2020/12/27 11:13:16;;;;;;;9.13;4.22;;;1.20;99.90;;;;;;5007661;28;20029;-73
2020/12/27 11:15:42;;;;;;;8.93;4.25;;;1.20;99.90;;;;;;5004349;28;20029;-73
2020/12/27 11:18:07;;;;;;;11.35;4.78;;;1.30;99.90;;;;;;5011298;28;20105;-73
2020/12/27 11:20:33;;;;;;;11.40;4.63;;;1.30;99.90;;;;;;5005747;28;20062;-73
2020/12/27 11:22:59;;;;;;;12.05;5.50;;;1.10;99.90;;;;;;5007335;28;20060;-73
2020/12/27 11:25:26;;;;;;;9.00;4.68;;;1.30;99.90;;;;;;5007693;28;20128;-73
2020/12/27 11:27:52;;;;;;;9.02;4.20;;;1.30;99.90;;;;;;5001200;28;20069;-73
2020/12/27 11:30:18;;;;;;;9.27;4.72;;;1.30;99.90;;;;;;4999837;28;20108;-73
2020/12/27 11:32:44;;;;;;;10.55;4.47;;;1.30;99.90;;;;;;5006987;28;20040;-73
2020/12/27 11:35:10;;;;;;;12.20;5.90;;;1.30;99.90;;;;;;5002153;28;20108;-73
2020/12/27 11:37:36;;;;;;;11.05;4.47;;;1.50;99.90;;;;;;5005610;28;20038;-73
2020/12/27 11:40:02;;;;;;;9.07;4.72;;;1.60;99.90;;;;;;5006334;28;20030;-73
2020/12/27 11:42:28;;;;;;;11.68;4.63;;;1.60;99.90;;;;;;5009352;28;20033;-73
2020/12/27 11:44:54;;;;;;;13.23;7.15;;;1.40;99.90;;;;;;5008504;28;20033;-73
2020/12/27 11:47:20;;;;;;;11.73;6.13;;;1.60;99.90;;;;;;5004761;28;20038;-73
2020/12/27 11:49:46;;;;;;;14.52;6.70;;;1.70;99.90;;;;;;5007894;28;20057;-73
2020/12/27 11:52:11;;;;;;;12.02;6.45;;;1.80;99.90;;;;;;5006290;28;20033;-73
2020/12/27 11:54:37;;;;;;;17.08;6.88;;;1.80;99.90;;;;;;5008024;28;20416;-73
2020/12/27 11:57:03;;;;;;;14.18;5.53;;;1.70;99.90;;;;;;5008230;28;20034;-73
2020/12/27 11:59:29;;;;;;;11.27;6.43;;;1.70;99.90;;;;;;5002999;28;20109;-73
2020/12/27 12:01:54;;;;;;;11.82;6.05;;;1.70;99.90;;;;;;5005337;28;20076;-77
2020/12/27 12:04:20;;;;;;;12.70;5.93;;;1.70;99.90;;;;;;5003665;28;20030;-73
2020/12/27 12:06:46;;;;;;;10.88;5.20;;;1.80;99.90;;;;;;5006421;28;20088;-73
2020/12/27 12:09:11;;;;;;;12.18;5.80;;;1.90;99.90;;;;;;5014733;28;20027;-73
2020/12/27 12:11:39;;;;;;;13.45;5.90;;;1.90;99.90;;;;;;5000642;28;20064;-73
2020/12/27 12:14:05;;;;;;;13.45;6.10;;;1.90;99.90;;;;;;5008872;28;20100;-73
2020/12/27 12:16:31;;;;;;;10.05;4.78;;;2.00;99.90;;;;;;5003975;28;20084;-73
2020/12/27 12:18:57;;;;;;;10.82;5.68;;;2.10;99.90;;;;;;5009332;28;20364;-73
2020/12/27 12:21:23;;;;;;;11.38;4.90;;;2.10;99.90;;;;;;5001431;28;20022;-73
2020/12/27 12:23:49;;;;;;;11.88;5.00;;;2.20;99.90;;;;;;5006796;28;20029;-73
2020/12/27 12:26:23;;;;;;;17.15;8.57;;;2.30;99.90;;;;;;5006790;28;20033;-73
2020/12/27 12:28:48;;;;;;;16.95;6.90;;;2.30;99.90;;;;;;4998576;28;20038;-73
2020/12/27 12:31:14;;;;;;;20.13;7.55;;;2.30;99.90;;;;;;5003124;28;20038;-73
2020/12/27 12:33:41;;;;;;;15.32;8.20;;;2.40;99.90;;;;;;5002908;28;20036;-72
2020/12/27 12:36:11;;;;;;;21.15;11.05;;;2.30;99.90;;;;;;5015660;28;20021;-73
2020/12/27 12:38:36;;;;;;;19.42;9.52;;;2.40;99.90;;;;;;5004760;28;20030;-73
2020/12/27 12:41:02;;;;;;;15.00;7.22;;;2.40;99.90;;;;;;5008823;28;20128;-76
2020/12/27 12:43:30;;;;;;;13.85;6.80;;;2.50;99.90;;;;;;5003051;28;20042;-74
2020/12/27 12:45:58;;;;;;;22.23;8.27;;;2.50;99.90;;;;;;5011370;28;20026;-73